createdAt,value
2022-10-29T00:00:57.773Z,6.67
2022-10-29T00:03:26.356Z,6.00
2022-10-29T00:06:06.390Z,4.47
2022-10-29T00:08:36.005Z,5.90
2022-10-29T00:11:12.608Z,7.60
2022-10-29T00:13:40.691Z,3.83
2022-10-29T00:16:14.392Z,4.57
2022-10-29T00:18:41.655Z,4.90
2022-10-29T00:21:15.442Z,5.87
2022-10-29T00:23:43.041Z,6.37
2022-10-29T00:26:11.077Z,6.20
2022-10-29T00:28:38.497Z,5.90
2022-10-29T00:31:18.046Z,8.53
2022-10-29T00:33:46.189Z,6.40
2022-10-29T00:36:16.815Z,7.80
2022-10-29T00:38:44.488Z,3.87
2022-10-29T00:41:16.143Z,5.30
2022-10-29T00:43:52.249Z,3.43
2022-10-29T00:46:35.198Z,7.80
2022-10-29T00:49:03.803Z,4.63
2022-10-29T00:51:32.942Z,3.47
2022-10-29T00:54:08.096Z,2.13
2022-10-29T00:56:58.320Z,2.90
2022-10-29T00:59:26.263Z,6.87
2022-10-29T01:01:54.258Z,4.53
2022-10-29T01:04:23.434Z,3.87
2022-10-29T01:06:52.354Z,6.20
2022-10-29T01:09:19.495Z,4.80
2022-10-29T01:12:22.675Z,7.50
2022-10-29T01:15:20.986Z,5.40
2022-10-29T01:18:20.941Z,3.97
2022-10-29T01:20:54.035Z,8.20
2022-10-29T01:24:07.742Z,7.93
2022-10-29T01:27:39.347Z,4.47
2022-10-29T01:30:15.200Z,5.83
2022-10-29T01:33:06.492Z,9.00
2022-10-29T01:36:05.114Z,6.03
2022-10-29T01:38:57.894Z,3.47
2022-10-29T01:41:56.632Z,4.27
2022-10-29T01:45:02.694Z,6.60
2022-10-29T01:47:40.709Z,5.37
2022-10-29T01:50:14.290Z,5.93
2022-10-29T01:52:43.610Z,4.10
2022-10-29T01:55:15.294Z,3.90
2022-10-29T01:57:42.851Z,5.57
2022-10-29T02:00:18.684Z,7.53
2022-10-29T02:02:58.467Z,10.20
2022-10-29T02:05:45.833Z,7.03
2022-10-29T02:08:20.345Z,4.93
2022-10-29T02:11:15.767Z,3.77
2022-10-29T02:13:53.712Z,8.33
2022-10-29T02:16:25.009Z,6.67
2022-10-29T02:18:52.920Z,6.80
2022-10-29T02:21:21.448Z,3.83
2022-10-29T02:23:48.946Z,4.07
2022-10-29T02:26:16.910Z,7.20
2022-10-29T02:28:44.646Z,3.50
2022-10-29T02:31:12.161Z,8.13
2022-10-29T02:33:39.680Z,7.03
2022-10-29T02:36:07.864Z,6.33
2022-10-29T02:38:35.781Z,4.10
2022-10-29T02:41:03.451Z,3.23
2022-10-29T02:43:31.020Z,4.33
2022-10-29T02:46:31.036Z,3.13
2022-10-29T02:48:58.607Z,2.90
2022-10-29T02:51:26.171Z,5.20
2022-10-29T02:53:53.805Z,7.57
2022-10-29T02:56:21.389Z,5.90
2022-10-29T02:58:48.896Z,5.43
2022-10-29T03:01:16.506Z,4.93
2022-10-29T03:03:44.205Z,6.30
2022-10-29T03:06:16.616Z,4.77
2022-10-29T03:08:45.265Z,5.27
2022-10-29T03:11:13.358Z,5.73
2022-10-29T03:13:40.844Z,4.47
2022-10-29T03:16:08.471Z,4.17
2022-10-29T03:18:36.012Z,3.90
2022-10-29T03:21:03.673Z,7.90
2022-10-29T03:23:31.419Z,4.43
2022-10-29T03:25:59.183Z,7.23
2022-10-29T03:28:27.503Z,6.33
2022-10-29T03:30:55.098Z,4.70
2022-10-29T03:33:22.850Z,6.37
2022-10-29T03:35:50.381Z,7.87
2022-10-29T03:38:17.855Z,5.63
2022-10-29T03:40:45.405Z,4.17
2022-10-29T03:43:12.909Z,7.37
2022-10-29T03:45:40.413Z,6.33
2022-10-29T03:48:08.011Z,6.87
2022-10-29T03:50:35.768Z,5.30
2022-10-29T03:53:03.300Z,9.97
2022-10-29T03:55:30.782Z,5.10
2022-10-29T03:57:58.387Z,7.83
2022-10-29T04:00:26.329Z,5.00
2022-10-29T04:02:54.139Z,6.23
2022-10-29T04:05:21.832Z,7.17
2022-10-29T04:07:49.452Z,6.83
2022-10-29T04:10:17.141Z,5.50
2022-10-29T04:12:48.047Z,7.40
2022-10-29T04:15:16.120Z,9.47
2022-10-29T04:17:43.671Z,9.93
2022-10-29T04:20:21.781Z,8.33
2022-10-29T04:28:58.931Z,54.27
2022-10-29T04:31:26.600Z,36.13
2022-10-29T04:33:54.493Z,32.97
2022-10-29T04:36:22.291Z,23.27
2022-10-29T04:38:50.953Z,23.17
2022-10-29T04:41:18.535Z,22.60
2022-10-29T04:43:46.319Z,23.23
2022-10-29T04:46:13.923Z,19.10
2022-10-29T04:48:41.546Z,13.30
2022-10-29T04:51:22.320Z,14.10
2022-10-29T04:53:53.686Z,17.23
2022-10-29T04:56:21.466Z,15.27
2022-10-29T04:58:52.044Z,14.23
2022-10-29T05:01:20.308Z,16.40
2022-10-29T05:03:48.178Z,11.33
2022-10-29T05:06:15.756Z,15.03
2022-10-29T05:08:43.265Z,13.97
2022-10-29T05:11:10.932Z,11.47
2022-10-29T05:13:38.575Z,9.10
2022-10-29T05:16:06.779Z,11.40
2022-10-29T05:18:33.903Z,11.43
2022-10-29T05:21:04.202Z,17.20
2022-10-29T05:23:32.012Z,18.27
2022-10-29T05:25:59.143Z,15.27
2022-10-29T05:28:29.429Z,13.80
2022-10-29T05:31:00.307Z,9.70
2022-10-29T05:33:27.497Z,7.93
2022-10-29T05:35:54.767Z,9.10
2022-10-29T05:38:21.900Z,12.10
2022-10-29T05:40:49.069Z,12.20
2022-10-29T05:43:17.807Z,19.30
2022-10-29T05:45:45.289Z,16.47
2022-10-29T05:48:14.334Z,18.93
2022-10-29T05:50:41.722Z,20.40
2022-10-29T05:53:14.286Z,12.47
2022-10-29T05:55:42.580Z,11.83
2022-10-29T05:58:14.509Z,14.43
2022-10-29T06:00:44.503Z,18.27
2022-10-29T06:03:18.044Z,14.63
2022-10-29T06:05:48.391Z,17.80
2022-10-29T06:08:16.159Z,17.30
2022-10-29T06:10:43.455Z,17.77
2022-10-29T06:13:22.410Z,17.60
2022-10-29T06:15:50.848Z,19.07
2022-10-29T06:18:18.120Z,19.67
2022-10-29T06:20:45.372Z,18.40
2022-10-29T06:23:12.596Z,17.50
2022-10-29T06:25:39.869Z,17.23
2022-10-29T06:28:11.071Z,11.93
2022-10-29T06:30:38.551Z,10.27
2022-10-29T06:33:05.765Z,13.40
2022-10-29T06:38:04.079Z,16.87
2022-10-29T06:40:33.572Z,17.73
2022-10-29T06:43:03.946Z,11.97
2022-10-29T06:45:34.121Z,10.13
2022-10-29T06:48:02.190Z,12.93
2022-10-29T06:50:29.561Z,10.60
2022-10-29T06:53:07.592Z,10.17
2022-10-29T06:55:35.543Z,15.63
2022-10-29T06:58:06.342Z,16.50
2022-10-29T07:00:35.098Z,12.60
2022-10-29T07:03:03.090Z,11.40
2022-10-29T07:05:31.017Z,13.80
2022-10-29T07:08:00.595Z,13.77
2022-10-29T07:10:31.321Z,15.77
2022-10-29T07:12:59.593Z,12.93
2022-10-29T07:15:30.834Z,12.63
2022-10-29T07:18:05.793Z,19.40
2022-10-29T07:20:36.860Z,13.43
2022-10-29T07:23:04.643Z,12.70
2022-10-29T07:25:39.520Z,12.33
2022-10-29T07:28:19.566Z,11.30
2022-10-29T07:30:47.469Z,13.43
2022-10-29T07:33:15.229Z,15.63
2022-10-29T07:35:43.789Z,18.87
2022-10-29T07:38:12.918Z,16.53
2022-10-29T07:40:47.657Z,15.97
2022-10-29T07:43:15.486Z,15.93
2022-10-29T07:45:48.347Z,9.07
2022-10-29T07:48:16.028Z,11.73
2022-10-29T07:50:43.283Z,11.07
2022-10-29T07:53:10.995Z,12.07
2022-10-29T07:55:38.756Z,18.00
2022-10-29T07:58:11.229Z,20.63
2022-10-29T08:00:41.265Z,16.03
2022-10-29T08:03:10.258Z,11.60
2022-10-29T08:05:37.461Z,13.20
2022-10-29T08:08:05.601Z,10.40
2022-10-29T08:10:35.866Z,12.30
2022-10-29T08:13:05.963Z,8.63
2022-10-29T08:15:38.594Z,13.17
2022-10-29T08:18:17.568Z,15.53
2022-10-29T08:20:45.376Z,9.70
2022-10-29T08:23:13.750Z,11.73
2022-10-29T08:25:42.233Z,12.30
2022-10-29T08:28:13.224Z,10.03
2022-10-29T08:30:42.276Z,10.33
2022-10-29T08:33:10.528Z,10.33
2022-10-29T08:35:37.688Z,7.37
2022-10-29T08:38:04.804Z,8.77
2022-10-29T08:40:46.468Z,10.53
2022-10-29T08:43:58.656Z,10.67
2022-10-29T08:46:46.314Z,7.93
2022-10-29T08:49:35.983Z,8.33
2022-10-29T08:52:14.753Z,7.93
2022-10-29T08:54:48.251Z,10.67
2022-10-29T08:57:19.242Z,8.90
2022-10-29T09:00:02.601Z,10.23
2022-10-29T09:02:29.960Z,13.80
2022-10-29T09:04:58.400Z,8.13
2022-10-29T09:08:12.812Z,8.97
2022-10-29T09:11:07.751Z,8.30
2022-10-29T09:13:51.550Z,8.97
2022-10-29T09:16:41.645Z,7.63
2022-10-29T09:19:26.796Z,11.33
2022-10-29T09:22:17.536Z,5.37
2022-10-29T09:25:08.257Z,6.30
2022-10-29T09:28:13.481Z,9.03
2022-10-29T09:31:42.063Z,12.43
2022-10-29T09:34:34.421Z,8.97
2022-10-29T09:37:02.467Z,6.90
2022-10-29T09:39:38.879Z,8.87
2022-10-29T09:42:22.026Z,5.13
2022-10-29T09:45:03.134Z,9.13
2022-10-29T09:48:25.152Z,9.13
2022-10-29T09:51:19.550Z,4.87
2022-10-29T09:53:46.835Z,13.20
2022-10-29T09:56:14.076Z,20.13
2022-10-29T09:58:52.345Z,11.50
2022-10-29T10:01:19.659Z,7.30
2022-10-29T10:03:55.628Z,6.23
2022-10-29T10:06:22.807Z,8.83
2022-10-29T10:09:06.420Z,13.50
2022-10-29T10:11:42.224Z,9.90
2022-10-29T10:14:22.643Z,13.70
2022-10-29T10:17:00.117Z,6.30
2022-10-29T10:19:31.505Z,6.27
2022-10-29T10:22:02.169Z,9.37
2022-10-29T10:24:35.174Z,4.93
2022-10-29T10:27:30.325Z,7.20
2022-10-29T10:30:14.717Z,4.80
2022-10-29T10:32:42.157Z,7.30
2022-10-29T10:35:30.921Z,7.60
2022-10-29T10:37:58.618Z,6.37
2022-10-29T10:40:26.490Z,6.63
2022-10-29T10:42:55.786Z,7.43
2022-10-29T10:45:40.631Z,8.20
2022-10-29T10:48:16.205Z,8.37
2022-10-29T10:50:43.537Z,7.63
2022-10-29T10:53:22.383Z,6.13
2022-10-29T10:55:56.666Z,8.97
2022-10-29T10:58:45.424Z,5.87
2022-10-29T11:01:43.713Z,7.30
2022-10-29T11:04:34.535Z,9.20
2022-10-29T11:07:08.281Z,8.70
2022-10-29T11:09:46.670Z,6.70
2022-10-29T11:12:44.882Z,3.83
2022-10-29T11:15:41.086Z,5.37
2022-10-29T11:18:41.315Z,3.30
2022-10-29T11:21:21.317Z,6.33
2022-10-29T11:24:05.402Z,7.50
2022-10-29T11:26:41.615Z,7.70
2022-10-29T11:29:42.170Z,8.40
2022-10-29T11:32:15.205Z,9.45
2022-10-29T11:35:11.268Z,5.82
2022-10-29T11:37:53.784Z,9.00
2022-10-29T11:41:09.716Z,6.07
2022-10-29T11:43:37.010Z,8.27
2022-10-29T11:46:31.688Z,9.00
2022-10-29T11:49:24.515Z,5.32
2022-10-29T11:52:22.561Z,6.93
2022-10-29T11:54:59.730Z,4.13
2022-10-29T11:57:47.831Z,6.95
2022-10-29T12:00:23.742Z,8.48
2022-10-29T12:03:12.395Z,6.60
2022-10-29T12:06:15.058Z,8.50
2022-10-29T12:09:37.448Z,10.90
2022-10-29T12:12:40.509Z,5.55
2022-10-29T12:15:32.026Z,10.63
2022-10-29T12:18:25.994Z,8.13
2022-10-29T12:21:26.701Z,7.82
2022-10-29T12:23:53.939Z,10.32
2022-10-29T12:26:36.140Z,7.80
2022-10-29T12:29:12.643Z,10.70
2022-10-29T12:31:44.599Z,7.95
2022-10-29T12:34:47.875Z,5.47
2022-10-29T12:37:48.171Z,7.65
2022-10-29T12:40:40.618Z,8.85
2022-10-29T12:43:29.079Z,5.82
2022-10-29T12:46:31.565Z,11.75
2022-10-29T12:49:40.140Z,10.80
2022-10-29T12:52:50.087Z,9.40
2022-10-29T12:55:23.528Z,7.95
2022-10-29T12:57:51.109Z,6.50
2022-10-29T13:00:45.899Z,6.83
2022-10-29T13:03:58.568Z,10.68
2022-10-29T13:06:45.330Z,6.43
2022-10-29T13:09:29.720Z,8.37
2022-10-29T13:12:13.687Z,9.10
2022-10-29T13:14:54.315Z,11.43
2022-10-29T13:17:41.901Z,9.23
2022-10-29T13:20:20.885Z,9.47
2022-10-29T13:22:52.421Z,9.77
2022-10-29T13:25:37.932Z,9.67
2022-10-29T13:28:08.075Z,10.07
2022-10-29T13:30:39.495Z,8.53
2022-10-29T13:33:28.510Z,11.93
2022-10-29T13:36:25.752Z,6.50
2022-10-29T13:39:05.749Z,6.77
2022-10-29T13:41:46.406Z,6.80
2022-10-29T13:44:29.183Z,10.77
2022-10-29T13:47:04.530Z,8.43
2022-10-29T13:49:42.374Z,7.90
2022-10-29T13:52:09.747Z,13.17
2022-10-29T13:55:06.366Z,12.50
2022-10-29T13:57:46.874Z,7.53
2022-10-29T14:00:14.203Z,4.40
2022-10-29T14:02:47.033Z,9.37
2022-10-29T14:05:40.436Z,8.60
2022-10-29T14:08:13.721Z,8.80
2022-10-29T14:10:41.059Z,8.90
2022-10-29T14:13:14.023Z,7.03
2022-10-29T14:16:06.960Z,8.03
2022-10-29T14:18:37.774Z,5.07
2022-10-29T14:21:15.502Z,11.87
2022-10-29T14:24:02.011Z,6.87
2022-10-29T14:26:33.434Z,6.87
2022-10-29T14:29:23.805Z,8.03
2022-10-29T14:32:11.523Z,6.43
2022-10-29T14:34:39.476Z,6.80
2022-10-29T14:37:37.363Z,6.87
2022-10-29T14:40:28.229Z,10.63
2022-10-29T14:42:57.477Z,6.57
2022-10-29T14:45:31.059Z,9.30
2022-10-29T14:48:02.080Z,10.43
2022-10-29T14:50:31.404Z,9.67
2022-10-29T14:53:05.533Z,6.10
2022-10-29T14:55:40.465Z,11.80
2022-10-29T14:58:16.509Z,9.47
2022-10-29T15:01:07.262Z,12.30
2022-10-29T15:03:36.261Z,9.17
2022-10-29T15:06:19.549Z,7.33
2022-10-29T15:09:02.312Z,10.17
2022-10-29T15:11:38.032Z,4.63
2022-10-29T15:14:36.290Z,7.10
2022-10-29T15:17:16.479Z,10.27
2022-10-29T15:19:46.789Z,7.67
2022-10-29T15:22:37.381Z,7.97
2022-10-29T15:25:15.599Z,9.63
2022-10-29T15:27:42.872Z,8.43
2022-10-29T15:30:28.306Z,9.93
2022-10-29T15:33:00.857Z,6.47
2022-10-29T15:35:28.752Z,20.73
2022-10-29T15:37:56.559Z,13.23
2022-10-29T15:40:25.812Z,15.53
2022-10-29T15:42:54.813Z,13.57
2022-10-29T15:45:26.515Z,16.07
2022-10-29T15:48:17.865Z,18.27
2022-10-29T15:50:46.129Z,18.10
2022-10-29T15:53:16.729Z,11.13
2022-10-29T15:55:44.593Z,9.43
2022-10-29T15:58:19.558Z,8.73
2022-10-29T16:00:46.845Z,13.57
2022-10-29T16:03:21.001Z,15.60
2022-10-29T16:05:59.225Z,12.40
2022-10-29T16:08:40.822Z,7.13
2022-10-29T16:11:16.788Z,11.37
2022-10-29T16:13:43.984Z,9.93
2022-10-29T16:16:15.132Z,6.27
2022-10-29T16:18:42.237Z,7.67
2022-10-29T16:21:14.319Z,11.17
2022-10-29T16:23:41.874Z,9.90
2022-10-29T16:26:21.309Z,8.43
2022-10-29T16:28:48.616Z,7.63
2022-10-29T16:31:28.863Z,9.20
2022-10-29T16:34:03.059Z,10.50
2022-10-29T16:36:30.420Z,9.57
2022-10-29T16:38:57.800Z,11.17
2022-10-29T16:41:25.019Z,10.43
2022-10-29T16:43:52.291Z,8.73
2022-10-29T16:46:19.863Z,10.50
2022-10-29T16:48:46.941Z,6.63
2022-10-29T16:51:14.219Z,9.87
2022-10-29T16:53:41.321Z,8.07
2022-10-29T16:56:08.740Z,6.33
2022-10-29T16:58:35.995Z,9.27
2022-10-29T17:01:08.191Z,7.50
2022-10-29T17:03:35.977Z,14.30
2022-10-29T17:06:09.777Z,10.77
2022-10-29T17:08:38.183Z,12.70
2022-10-29T17:11:07.261Z,11.20
2022-10-29T17:13:34.990Z,12.77
2022-10-29T17:16:12.236Z,15.27
2022-10-29T17:18:39.457Z,12.27
2022-10-29T17:21:06.676Z,15.37
2022-10-29T17:23:34.272Z,11.40
2022-10-29T17:26:01.432Z,12.27
2022-10-29T17:28:28.922Z,16.17
2022-10-29T17:30:56.109Z,17.17
2022-10-29T17:33:23.336Z,14.87
2022-10-29T17:35:59.940Z,19.83
2022-10-29T17:38:27.525Z,14.20
2022-10-29T17:40:54.623Z,21.20
2022-10-29T17:43:22.166Z,26.23
2022-10-29T17:45:49.377Z,31.50
2022-10-29T17:48:18.749Z,39.60
2022-10-29T17:50:56.901Z,28.00
2022-10-29T17:53:26.607Z,22.10
2022-10-29T17:55:58.240Z,16.03
2022-10-29T17:58:26.298Z,13.40
2022-10-29T18:00:54.351Z,17.07
2022-10-29T18:03:25.728Z,21.70
2022-10-29T18:05:53.284Z,21.77
2022-10-29T18:08:20.834Z,16.60
2022-10-29T18:10:48.365Z,13.17
2022-10-29T18:13:15.930Z,11.73
2022-10-29T18:15:43.406Z,14.83
2022-10-29T18:18:10.981Z,15.57
2022-10-29T18:20:38.511Z,19.07
2022-10-29T18:23:06.187Z,18.50
2022-10-29T18:25:33.740Z,14.23
2022-10-29T18:28:01.343Z,14.63
2022-10-29T18:30:28.797Z,11.40
2022-10-29T18:32:56.935Z,14.30
2022-10-29T18:35:24.800Z,13.00
2022-10-29T18:37:52.309Z,17.17
2022-10-29T18:40:19.879Z,11.33
2022-10-29T18:42:47.462Z,12.03
2022-10-29T18:45:15.050Z,12.63
2022-10-29T18:47:42.178Z,9.40
2022-10-29T18:50:09.563Z,10.73
2022-10-29T18:52:36.770Z,11.63
2022-10-29T18:55:04.285Z,11.47
2022-10-29T18:57:31.557Z,18.67
2022-10-29T18:59:58.674Z,11.70
2022-10-29T19:02:25.971Z,10.37
2022-10-29T19:04:53.197Z,10.30
2022-10-29T19:07:20.369Z,12.27
2022-10-29T19:09:48.208Z,11.60
2022-10-29T19:12:15.399Z,6.90
2022-10-29T19:14:42.524Z,12.20
2022-10-29T19:17:09.716Z,8.70
2022-10-29T19:19:36.966Z,7.43
2022-10-29T19:22:04.087Z,13.33
2022-10-29T19:24:31.667Z,6.90
2022-10-29T19:26:59.497Z,11.20
2022-10-29T19:29:27.239Z,9.60
2022-10-29T19:31:55.002Z,11.53
2022-10-29T19:34:22.458Z,5.80
2022-10-29T19:36:49.610Z,4.97
2022-10-29T19:39:16.875Z,8.70
2022-10-29T19:41:44.109Z,8.10
2022-10-29T19:44:11.413Z,9.87
2022-10-29T19:46:38.609Z,10.57
2022-10-29T19:49:05.991Z,11.63
2022-10-29T19:51:33.203Z,10.30
2022-10-29T19:54:00.608Z,8.53
2022-10-29T19:56:27.956Z,6.83
2022-10-29T19:58:55.152Z,8.83
2022-10-29T20:01:22.636Z,11.47
2022-10-29T20:03:50.088Z,11.43
2022-10-29T20:06:17.655Z,10.70
2022-10-29T20:08:45.449Z,9.80
2022-10-29T20:11:12.754Z,10.87
2022-10-29T20:13:40.148Z,7.97
2022-10-29T20:16:18.000Z,9.17
2022-10-29T20:18:46.210Z,8.63
2022-10-29T20:21:14.328Z,20.00
2022-10-29T20:23:42.360Z,12.93
2022-10-29T20:26:09.737Z,10.50
2022-10-29T20:28:37.611Z,13.40
2022-10-29T20:31:18.505Z,12.03
2022-10-29T20:33:53.958Z,7.63
2022-10-29T20:36:22.560Z,6.03
2022-10-29T20:38:51.848Z,10.77
2022-10-29T20:41:20.561Z,9.10
2022-10-29T20:43:53.980Z,10.93
2022-10-29T20:46:23.145Z,6.27
2022-10-29T20:48:50.860Z,9.47
2022-10-29T20:51:18.483Z,9.20
2022-10-29T20:53:45.628Z,8.73
2022-10-29T20:56:16.018Z,11.93
2022-10-29T20:58:44.433Z,11.63
2022-10-29T21:01:16.847Z,10.07
2022-10-29T21:03:45.350Z,10.20
2022-10-29T21:06:17.034Z,7.70
2022-10-29T21:08:47.178Z,13.00
2022-10-29T21:11:16.206Z,6.30
2022-10-29T21:13:43.867Z,7.83
2022-10-29T21:16:28.870Z,12.27
2022-10-29T21:18:59.799Z,9.10
2022-10-29T21:21:29.313Z,8.47
2022-10-29T21:23:59.643Z,5.93
2022-10-29T21:26:28.543Z,9.03
2022-10-29T21:28:55.917Z,12.50
2022-10-29T21:31:24.301Z,10.93
2022-10-29T21:33:54.208Z,8.83
2022-10-29T21:36:22.570Z,6.77
2022-10-29T21:38:50.265Z,9.60
2022-10-29T21:41:17.751Z,6.83
2022-10-29T21:43:45.142Z,11.87
2022-10-29T21:46:12.488Z,12.20
2022-10-29T21:48:39.659Z,6.83
2022-10-29T21:51:11.294Z,8.20
2022-10-29T21:53:38.605Z,10.97
2022-10-29T21:56:09.896Z,7.17
2022-10-29T21:58:37.078Z,11.07
2022-10-29T22:01:14.109Z,9.57
2022-10-29T22:03:44.631Z,5.90
2022-10-29T22:06:16.910Z,9.20
2022-10-29T22:08:46.193Z,7.87
2022-10-29T22:11:15.413Z,9.57
2022-10-29T22:13:42.789Z,6.50
2022-10-29T22:16:11.386Z,8.47
2022-10-29T22:18:39.999Z,9.20
2022-10-29T22:21:20.083Z,4.90
2022-10-29T22:23:53.907Z,9.80
2022-10-29T22:26:25.242Z,4.93
2022-10-29T22:28:52.733Z,10.10
2022-10-29T22:31:22.064Z,8.87
2022-10-29T22:33:49.519Z,5.40
2022-10-29T22:36:23.333Z,8.17
2022-10-29T22:38:59.972Z,6.93
2022-10-29T22:41:29.491Z,9.03
2022-10-29T22:43:58.144Z,7.13
2022-10-29T22:46:27.335Z,9.53
2022-10-29T22:48:55.148Z,5.57
2022-10-29T22:51:26.361Z,7.47
2022-10-29T22:53:54.526Z,6.53
2022-10-29T22:56:29.327Z,10.27
2022-10-29T22:58:57.284Z,5.93
2022-10-29T23:01:28.568Z,7.27
2022-10-29T23:03:57.621Z,7.80
2022-10-29T23:06:26.678Z,5.40
2022-10-29T23:08:57.436Z,6.53
2022-10-29T23:11:28.379Z,6.37
2022-10-29T23:14:00.095Z,9.23
2022-10-29T23:16:31.319Z,6.87
2022-10-29T23:19:02.903Z,11.00
2022-10-29T23:21:30.809Z,6.93
2022-10-29T23:23:58.319Z,8.13
2022-10-29T23:26:26.389Z,5.87
2022-10-29T23:28:53.764Z,7.83
2022-10-29T23:31:25.399Z,6.57
2022-10-29T23:33:56.094Z,8.13
2022-10-29T23:36:25.683Z,8.27
2022-10-29T23:39:01.278Z,7.33
2022-10-29T23:41:31.327Z,7.63
2022-10-29T23:43:59.147Z,5.00
2022-10-29T23:46:26.727Z,10.10
2022-10-29T23:48:53.971Z,6.73
2022-10-29T23:51:21.274Z,8.13
2022-10-29T23:53:50.499Z,9.53
2022-10-29T23:56:20.529Z,6.80
2022-10-29T23:58:47.806Z,8.37
